Time;durP1;ratioP1;P1;durP2;ratioP2;P2;SDS_P1;SDS_P2;PMS_P1;PMS_P2;Temp;Humidity;BMP_temperature;BMP_pressure;BME280_temperature;BME280_humidity;BME280_pressure;Samples;Min_cycle;Max_cycle;Signal;HPM_P1;HPM_P2
2023/01/09 00:01:16;;;;;;;6.80;2.72;;;;;;;;;;5089439;28;20122;-70
2023/01/09 00:04:01;;;;;;;7.90;3.42;;;;;;;;;;5075336;28;20036;-70
2023/01/09 00:06:52;;;;;;;5.80;2.80;;;;;;;;;;5074662;28;20743;-70
2023/01/09 00:09:37;;;;;;;4.82;3.08;;;;;;;;;;5068766;28;20410;-70
2023/01/09 00:12:23;;;;;;;4.40;2.83;;;;;;;;;;5076149;28;20107;-71
2023/01/09 00:15:09;;;;;;;4.88;2.83;;;;;;;;;;5071694;28;20063;-71
2023/01/09 00:17:54;;;;;;;5.22;3.20;;;;;;;;;;5075448;28;20043;-70
2023/01/09 00:20:39;;;;;;;7.30;3.25;;;;;;;;;;5079967;28;20307;-71
2023/01/09 00:23:24;;;;;;;6.97;3.47;;;;;;;;;;5070380;28;20056;-72
2023/01/09 00:26:09;;;;;;;4.65;3.38;;;;;;;;;;5075403;28;20360;-70
2023/01/09 00:28:55;;;;;;;7.28;3.35;;;;;;;;;;5075024;28;20470;-70
2023/01/09 00:31:40;;;;;;;5.53;3.30;;;;;;;;;;5075017;28;20078;-69
2023/01/09 00:34:25;;;;;;;5.60;3.35;;;;;;;;;;5088747;28;20043;-70
2023/01/09 00:37:11;;;;;;;4.47;3.13;;;;;;;;;;5064213;28;20054;-70
2023/01/09 00:39:56;;;;;;;4.95;2.90;;;;;;;;;;5070127;28;20319;-69
2023/01/09 00:42:43;;;;;;;4.18;2.83;;;;;;;;;;5084916;28;20105;-68
2023/01/09 00:45:28;;;;;;;4.32;2.92;;;;;;;;;;5073822;28;20071;-70
2023/01/09 00:48:16;;;;;;;4.90;2.90;;;;;;;;;;5089101;28;20095;-70
2023/01/09 00:51:01;;;;;;;5.22;3.13;;;;;;;;;;5081678;28;20044;-68
2023/01/09 00:53:48;;;;;;;7.00;3.35;;;;;;;;;;5055421;28;20052;-69
2023/01/09 00:56:34;;;;;;;3.90;2.67;;;;;;;;;;5064069;28;20028;-69
2023/01/09 00:59:19;;;;;;;3.28;2.28;;;;;;;;;;5071575;28;20052;-70
2023/01/09 01:02:04;;;;;;;7.00;2.78;;;;;;;;;;5074648;28;20028;-73
2023/01/09 01:07:53;;;;;;;3.25;2.38;;;;;;;;;;5074804;28;20028;-70
2023/01/09 01:10:39;;;;;;;3.22;2.33;;;;;;;;;;5046034;28;20070;-70
2023/01/09 01:13:24;;;;;;;4.13;2.08;;;;;;;;;;5088958;28;20046;-69
2023/01/09 01:16:10;;;;;;;2.47;1.60;;;;;;;;;;5072283;28;20030;-70
2023/01/09 01:18:56;;;;;;;2.85;1.90;;;;;;;;;;5074045;28;20055;-72
2023/01/09 01:21:41;;;;;;;3.30;2.03;;;;;;;;;;5074589;28;20028;-70
2023/01/09 01:24:26;;;;;;;1.30;1.20;;;;;;;;;;5063392;28;20047;-70
2023/01/09 01:27:11;;;;;;;3.05;1.67;;;;;;;;;;5077412;28;20032;-69
2023/01/09 01:29:57;;;;;;;2.42;1.23;;;;;;;;;;5073549;28;20118;-70
2023/01/09 01:32:42;;;;;;;4.32;1.92;;;;;;;;;;5074322;28;20042;-69
2023/01/09 01:35:27;;;;;;;1.85;1.52;;;;;;;;;;5059711;28;20538;-71
2023/01/09 01:38:12;;;;;;;2.08;1.30;;;;;;;;;;5074014;28;20055;-69
2023/01/09 01:40:58;;;;;;;1.25;0.98;;;;;;;;;;5061289;28;20571;-68
2023/01/09 01:43:47;;;;;;;2.47;0.98;;;;;;;;;;5067815;28;20021;-68
2023/01/09 01:46:33;;;;;;;1.15;1.00;;;;;;;;;;5060210;28;20089;-69
2023/01/09 01:49:19;;;;;;;1.40;1.00;;;;;;;;;;5062671;28;20090;-68
2023/01/09 01:52:04;;;;;;;1.45;0.95;;;;;;;;;;5074032;28;20652;-66
2023/01/09 01:54:49;;;;;;;2.03;1.33;;;;;;;;;;5073606;28;20089;-67
2023/01/09 01:57:36;;;;;;;1.45;0.70;;;;;;;;;;5081971;28;20024;-67
2023/01/09 02:00:25;;;;;;;1.77;0.90;;;;;;;;;;5073139;28;20482;-67
2023/01/09 02:03:12;;;;;;;0.98;0.77;;;;;;;;;;5063219;28;20032;-66
2023/01/09 02:05:57;;;;;;;2.25;1.00;;;;;;;;;;5071526;28;20039;-83
2023/01/09 02:08:42;;;;;;;1.17;0.65;;;;;;;;;;5054256;28;20499;-82
2023/01/09 02:11:27;;;;;;;1.02;0.90;;;;;;;;;;5053954;28;20415;-83
2023/01/09 02:14:14;;;;;;;1.35;1.20;;;;;;;;;;5079393;28;20545;-83
2023/01/09 02:16:59;;;;;;;1.98;0.82;;;;;;;;;;5078684;28;20085;-83
2023/01/09 02:20:03;;;;;;;1.85;0.80;;;;;;;;;;5058686;28;20032;-82
2023/01/09 02:22:48;;;;;;;1.00;0.90;;;;;;;;;;5061644;28;20028;-83
2023/01/09 02:25:37;;;;;;;1.05;0.88;;;;;;;;;;5051255;28;20466;-84
2023/01/09 02:28:41;;;;;;;0.77;0.70;;;;;;;;;;5056352;28;20068;-82
2023/01/09 02:31:43;;;;;;;0.70;0.70;;;;;;;;;;5074160;28;20025;-83
2023/01/09 02:34:34;;;;;;;0.85;0.55;;;;;;;;;;5058985;28;20636;-83
2023/01/09 02:37:29;;;;;;;3.72;0.98;;;;;;;;;;5073486;28;20039;-82
2023/01/09 02:40:24;;;;;;;1.65;0.80;;;;;;;;;;5070273;28;20470;-83
2023/01/09 02:43:10;;;;;;;0.90;0.70;;;;;;;;;;5083511;28;20050;-83
2023/01/09 02:45:55;;;;;;;0.95;0.65;;;;;;;;;;5059272;28;20130;-83
2023/01/09 02:48:41;;;;;;;0.77;0.70;;;;;;;;;;5067172;28;20056;-84
2023/01/09 02:51:34;;;;;;;1.60;0.80;;;;;;;;;;5072492;28;20084;-83
2023/01/09 02:54:27;;;;;;;2.83;0.77;;;;;;;;;;5073085;28;20043;-84
2023/01/09 02:57:20;;;;;;;2.13;0.80;;;;;;;;;;5074343;28;20081;-82
2023/01/09 03:00:06;;;;;;;1.58;0.70;;;;;;;;;;5071280;28;20029;-83
2023/01/09 03:02:56;;;;;;;1.65;0.50;;;;;;;;;;5077460;28;20532;-81
2023/01/09 03:05:50;;;;;;;0.85;0.80;;;;;;;;;;5065099;28;20700;-80
2023/01/09 03:08:38;;;;;;;0.70;0.70;;;;;;;;;;5070179;28;20351;-83
2023/01/09 03:11:25;;;;;;;0.88;0.60;;;;;;;;;;5072175;28;20482;-82
2023/01/09 03:14:13;;;;;;;0.70;0.70;;;;;;;;;;5060156;28;20024;-82
2023/01/09 03:17:01;;;;;;;1.00;0.60;;;;;;;;;;5072987;28;20039;-82
2023/01/09 03:19:47;;;;;;;0.50;0.50;;;;;;;;;;5073200;28;20032;-82
2023/01/09 03:22:33;;;;;;;0.93;0.70;;;;;;;;;;5072814;28;20056;-83
2023/01/09 03:25:18;;;;;;;0.82;0.63;;;;;;;;;;5077484;28;20028;-82
2023/01/09 03:28:04;;;;;;;1.17;0.98;;;;;;;;;;5052994;28;20029;-84
2023/01/09 03:30:49;;;;;;;0.50;0.50;;;;;;;;;;5052281;28;20483;-85
2023/01/09 03:33:35;;;;;;;1.20;0.68;;;;;;;;;;5067251;28;20105;-84
2023/01/09 03:36:22;;;;;;;0.60;0.60;;;;;;;;;;5066743;28;20036;-83
2023/01/09 03:39:07;;;;;;;0.85;0.65;;;;;;;;;;5069218;28;20046;-84
2023/01/09 03:41:52;;;;;;;0.60;0.50;;;;;;;;;;5052832;28;20593;-82
2023/01/09 03:44:38;;;;;;;0.50;0.50;;;;;;;;;;5067930;28;20032;-85
2023/01/09 03:47:23;;;;;;;0.50;0.50;;;;;;;;;;5075645;28;20020;-84
2023/01/09 03:50:09;;;;;;;2.25;0.60;;;;;;;;;;5089131;28;20685;-83
2023/01/09 03:52:54;;;;;;;0.70;0.40;;;;;;;;;;5076434;28;20081;-83
2023/01/09 03:55:42;;;;;;;0.63;0.57;;;;;;;;;;5071980;28;20032;-83
2023/01/09 03:58:27;;;;;;;0.47;0.40;;;;;;;;;;5069898;28;20067;-80
2023/01/09 04:01:12;;;;;;;1.00;0.55;;;;;;;;;;5074387;28;20380;-83
2023/01/09 04:03:57;;;;;;;0.40;0.40;;;;;;;;;;5082046;28;20036;-81
2023/01/09 04:06:43;;;;;;;0.60;0.50;;;;;;;;;;5079262;28;20865;-82
2023/01/09 04:09:28;;;;;;;0.45;0.45;;;;;;;;;;5061922;28;20111;-82
2023/01/09 04:12:13;;;;;;;2.15;0.50;;;;;;;;;;5075902;28;20051;-82
2023/01/09 04:14:58;;;;;;;0.40;0.40;;;;;;;;;;5071436;28;20089;-81
2023/01/09 04:17:43;;;;;;;0.47;0.47;;;;;;;;;;5075904;28;20040;-82
2023/01/09 04:20:29;;;;;;;0.77;0.45;;;;;;;;;;5075232;28;20486;-82
2023/01/09 04:23:14;;;;;;;0.30;0.30;;;;;;;;;;5075417;28;20382;-81
2023/01/09 04:26:00;;;;;;;0.30;0.30;;;;;;;;;;5075493;28;20039;-84
2023/01/09 04:28:45;;;;;;;0.40;0.40;;;;;;;;;;5075273;28;20028;-83
2023/01/09 04:31:30;;;;;;;0.40;0.40;;;;;;;;;;5075323;28;20035;-82
2023/01/09 04:34:15;;;;;;;0.30;0.30;;;;;;;;;;5075646;28;20032;-83
2023/01/09 04:37:01;;;;;;;0.40;0.40;;;;;;;;;;5080899;28;20024;-81
2023/01/09 04:39:46;;;;;;;0.47;0.47;;;;;;;;;;5075887;28;20028;-82
2023/01/09 04:42:32;;;;;;;0.52;0.52;;;;;;;;;;5067787;28;20031;-81
2023/01/09 04:45:17;;;;;;;0.52;0.47;;;;;;;;;;5078934;28;20020;-81
2023/01/09 04:48:02;;;;;;;1.20;0.40;;;;;;;;;;5068855;28;20059;-80
2023/01/09 04:50:47;;;;;;;0.40;0.40;;;;;;;;;;5074904;28;20030;-85
2023/01/09 04:53:33;;;;;;;0.40;0.40;;;;;;;;;;5076309;28;20038;-84
2023/01/09 04:56:18;;;;;;;0.30;0.30;;;;;;;;;;5074558;28;20031;-82
2023/01/09 04:59:04;;;;;;;0.40;0.40;;;;;;;;;;5073642;28;20039;-83
2023/01/09 05:01:51;;;;;;;0.98;0.43;;;;;;;;;;5081066;28;20028;-83
2023/01/09 05:04:36;;;;;;;1.48;0.50;;;;;;;;;;5074546;28;20074;-82
2023/01/09 05:07:21;;;;;;;1.85;1.05;;;;;;;;;;5074404;28;20486;-80
2023/01/09 05:10:07;;;;;;;0.55;0.55;;;;;;;;;;5066916;28;20071;-82
2023/01/09 05:12:52;;;;;;;1.05;0.50;;;;;;;;;;5074751;28;20036;-80
2023/01/09 05:15:37;;;;;;;1.25;0.60;;;;;;;;;;5072198;28;20031;-83
2023/01/09 05:18:23;;;;;;;0.40;0.40;;;;;;;;;;5060272;28;20483;-82
2023/01/09 05:21:08;;;;;;;0.95;0.60;;;;;;;;;;5083280;28;20601;-83
2023/01/09 05:23:53;;;;;;;1.50;0.73;;;;;;;;;;5062940;28;20058;-84
2023/01/09 05:26:38;;;;;;;2.50;1.25;;;;;;;;;;5073881;28;20028;-83
2023/01/09 05:29:24;;;;;;;1.23;0.60;;;;;;;;;;5056753;28;20379;-84
2023/01/09 05:32:09;;;;;;;1.48;0.50;;;;;;;;;;5083019;28;20115;-82
2023/01/09 05:34:54;;;;;;;1.05;0.63;;;;;;;;;;5074237;28;20054;-81
2023/01/09 05:37:39;;;;;;;1.60;0.77;;;;;;;;;;5071484;28;20493;-82
2023/01/09 05:40:25;;;;;;;2.47;0.70;;;;;;;;;;5062988;28;20055;-83
2023/01/09 05:43:10;;;;;;;1.27;0.63;;;;;;;;;;5077657;28;20115;-81
2023/01/09 05:45:55;;;;;;;0.50;0.50;;;;;;;;;;5069175;28;20118;-82
2023/01/09 05:48:40;;;;;;;0.93;0.60;;;;;;;;;;5067661;28;20081;-82
2023/01/09 05:51:26;;;;;;;2.05;0.85;;;;;;;;;;5062244;28;20032;-83
2023/01/09 05:54:11;;;;;;;3.70;1.05;;;;;;;;;;5087954;28;20028;-82
2023/01/09 05:56:56;;;;;;;0.95;0.50;;;;;;;;;;5064642;28;20020;-83
2023/01/09 05:59:41;;;;;;;1.00;0.68;;;;;;;;;;5087827;28;20036;-83
2023/01/09 06:02:26;;;;;;;1.70;0.80;;;;;;;;;;5073740;28;20686;-82
2023/01/09 06:05:12;;;;;;;2.40;0.60;;;;;;;;;;5073187;28;20088;-80
2023/01/09 06:07:57;;;;;;;1.95;0.80;;;;;;;;;;5073499;28;20032;-70
2023/01/09 06:10:42;;;;;;;2.38;0.85;;;;;;;;;;5073371;28;20028;-70
2023/01/09 06:13:27;;;;;;;1.60;0.60;;;;;;;;;;5066602;28;20067;-72
2023/01/09 06:16:13;;;;;;;1.25;0.60;;;;;;;;;;5070552;28;20016;-71
2023/01/09 06:18:58;;;;;;;3.15;1.00;;;;;;;;;;5046596;28;20028;-69
2023/01/09 06:21:43;;;;;;;1.52;0.82;;;;;;;;;;5073071;28;20663;-70
2023/01/09 06:24:28;;;;;;;3.50;1.08;;;;;;;;;;5073351;28;20063;-70
2023/01/09 06:27:14;;;;;;;0.82;0.82;;;;;;;;;;5075924;28;20100;-70
2023/01/09 06:30:02;;;;;;;4.43;0.90;;;;;;;;;;5079817;28;20366;-70
2023/01/09 06:32:48;;;;;;;3.10;1.40;;;;;;;;;;5073046;28;20128;-71
2023/01/09 06:35:33;;;;;;;4.07;1.00;;;;;;;;;;5073074;28;20031;-71
2023/01/09 06:38:18;;;;;;;2.08;0.90;;;;;;;;;;5073351;28;20420;-71
2023/01/09 06:41:04;;;;;;;2.20;1.33;;;;;;;;;;5059995;28;20020;-70
2023/01/09 06:43:49;;;;;;;2.25;1.13;;;;;;;;;;5088089;28;20036;-70
2023/01/09 06:46:34;;;;;;;1.30;0.60;;;;;;;;;;5064087;28;20209;-70
2023/01/09 06:49:22;;;;;;;2.08;1.08;;;;;;;;;;5073288;28;20115;-71
2023/01/09 06:52:07;;;;;;;2.53;0.70;;;;;;;;;;5072949;28;20035;-72
2023/01/09 06:54:52;;;;;;;2.95;0.68;;;;;;;;;;5057072;28;20470;-70
2023/01/09 06:57:38;;;;;;;1.48;0.70;;;;;;;;;;5072514;28;20039;-71
2023/01/09 07:00:24;;;;;;;1.55;0.80;;;;;;;;;;5065136;28;20498;-69
2023/01/09 07:03:10;;;;;;;2.17;1.05;;;;;;;;;;5055082;28;20039;-70
2023/01/09 07:05:55;;;;;;;3.20;1.23;;;;;;;;;;5073352;28;20040;-71
2023/01/09 07:08:40;;;;;;;3.20;1.00;;;;;;;;;;5059125;28;20455;-71
2023/01/09 07:11:26;;;;;;;2.90;1.10;;;;;;;;;;5072352;28;20036;-71
2023/01/09 07:14:11;;;;;;;1.73;1.00;;;;;;;;;;5059136;28;20502;-69
2023/01/09 07:16:57;;;;;;;1.15;0.65;;;;;;;;;;5081442;28;20019;-72
2023/01/09 07:19:42;;;;;;;3.70;1.45;;;;;;;;;;5078341;28;20493;-70
2023/01/09 07:22:27;;;;;;;2.47;1.00;;;;;;;;;;5061625;28;20028;-71
2023/01/09 07:25:12;;;;;;;2.97;1.33;;;;;;;;;;5071915;28;20032;-69
2023/01/09 07:27:58;;;;;;;5.90;2.17;;;;;;;;;;5070894;28;20035;-70
2023/01/09 07:30:43;;;;;;;6.15;2.08;;;;;;;;;;5072388;28;20368;-69
2023/01/09 07:33:28;;;;;;;5.30;1.75;;;;;;;;;;5075592;28;20475;-73
2023/01/09 07:36:13;;;;;;;2.28;1.33;;;;;;;;;;5076433;28;20036;-71
2023/01/09 07:38:59;;;;;;;4.13;1.33;;;;;;;;;;5090548;28;20473;-71
2023/01/09 07:41:44;;;;;;;4.47;1.88;;;;;;;;;;5066659;28;20067;-71
2023/01/09 07:44:29;;;;;;;2.40;1.02;;;;;;;;;;5076114;28;20080;-71
2023/01/09 07:47:15;;;;;;;4.43;1.60;;;;;;;;;;5075760;28;20052;-71
2023/01/09 07:50:00;;;;;;;3.50;1.30;;;;;;;;;;5082456;28;20047;-71
2023/01/09 07:52:45;;;;;;;3.72;1.10;;;;;;;;;;5074904;28;20125;-70
2023/01/09 07:55:30;;;;;;;3.25;1.15;;;;;;;;;;5065936;28;20105;-70
2023/01/09 07:58:16;;;;;;;3.33;1.13;;;;;;;;;;5088600;28;20032;-82
2023/01/09 08:01:01;;;;;;;2.05;1.05;;;;;;;;;;5061737;28;20167;-82
2023/01/09 08:03:46;;;;;;;4.22;1.10;;;;;;;;;;5075929;28;20059;-84
2023/01/09 08:06:31;;;;;;;2.33;1.20;;;;;;;;;;5075685;28;20405;-81
2023/01/09 08:09:17;;;;;;;17.08;2.05;;;;;;;;;;5067606;28;20031;-83
2023/01/09 08:12:03;;;;;;;2.75;1.10;;;;;;;;;;5075654;28;20478;-82
2023/01/09 08:14:50;;;;;;;2.60;1.35;;;;;;;;;;5075875;28;20028;-84
2023/01/09 08:17:35;;;;;;;6.72;1.15;;;;;;;;;;5068053;28;20081;-83
2023/01/09 08:20:21;;;;;;;4.28;1.02;;;;;;;;;;5069754;28;20044;-83
2023/01/09 08:23:06;;;;;;;2.03;0.98;;;;;;;;;;5079699;28;20153;-84
2023/01/09 08:25:51;;;;;;;5.10;1.05;;;;;;;;;;5066193;28;20383;-83
2023/01/09 08:28:37;;;;;;;1.85;1.05;;;;;;;;;;5068700;28;20036;-83
2023/01/09 08:31:22;;;;;;;4.15;1.00;;;;;;;;;;5061690;28;20435;-83
2023/01/09 08:34:07;;;;;;;4.18;1.17;;;;;;;;;;5075232;28;20855;-85
2023/01/09 08:36:53;;;;;;;2.50;1.13;;;;;;;;;;5077262;28;20198;-82
2023/01/09 08:39:38;;;;;;;5.38;1.15;;;;;;;;;;5066407;28;20051;-81
2023/01/09 08:48:31;;;;;;;2.70;1.20;;;;;;;;;;5088375;28;20127;-82
2023/01/09 08:51:16;;;;;;;7.32;1.52;;;;;;;;;;5074591;28;20585;-81
2023/01/09 08:54:01;;;;;;;6.35;1.77;;;;;;;;;;5083009;28;20036;-81
2023/01/09 08:56:47;;;;;;;7.38;1.50;;;;;;;;;;5061438;28;20024;-82
2023/01/09 08:59:32;;;;;;;3.58;0.98;;;;;;;;;;5074579;28;20036;-81
2023/01/09 09:02:17;;;;;;;3.60;1.42;;;;;;;;;;5053987;28;20040;-81
2023/01/09 09:05:02;;;;;;;4.40;1.10;;;;;;;;;;5074831;28;20032;-80
2023/01/09 09:07:48;;;;;;;5.22;1.08;;;;;;;;;;5074483;28;20040;-82
2023/01/09 09:10:34;;;;;;;3.97;1.27;;;;;;;;;;5074955;28;20115;-83
2023/01/09 09:13:19;;;;;;;3.17;1.10;;;;;;;;;;5088733;28;20134;-81
2023/01/09 09:16:05;;;;;;;3.88;1.15;;;;;;;;;;5084042;28;20084;-81
2023/01/09 09:18:50;;;;;;;4.15;1.48;;;;;;;;;;5074499;28;20055;-82
2023/01/09 09:21:35;;;;;;;3.75;1.55;;;;;;;;;;5075512;28;20028;-83
2023/01/09 09:24:21;;;;;;;2.92;1.27;;;;;;;;;;5078026;28;20204;-82
2023/01/09 09:27:06;;;;;;;2.55;1.02;;;;;;;;;;5062253;28;20122;-81
2023/01/09 09:29:52;;;;;;;1.90;0.90;;;;;;;;;;5067464;28;20168;-80
2023/01/09 09:32:37;;;;;;;3.60;0.95;;;;;;;;;;5061942;28;20379;-83
2023/01/09 09:35:22;;;;;;;5.53;1.20;;;;;;;;;;5074909;28;20032;-81
2023/01/09 09:38:09;;;;;;;1.83;0.88;;;;;;;;;;5074520;28;20189;-83
2023/01/09 09:41:00;;;;;;;4.20;1.15;;;;;;;;;;5074547;28;20040;-81
2023/01/09 09:47:01;;;;;;;3.47;1.15;;;;;;;;;;5075326;28;20254;-83
2023/01/09 09:50:05;;;;;;;1.55;1.10;;;;;;;;;;5059183;28;20118;-83
2023/01/09 09:52:56;;;;;;;3.17;1.25;;;;;;;;;;5073881;28;20115;-81
2023/01/09 09:55:41;;;;;;;6.38;1.30;;;;;;;;;;5074143;28;20421;-83
2023/01/09 09:58:35;;;;;;;1.38;0.80;;;;;;;;;;5095004;28;20039;-81
2023/01/09 10:01:22;;;;;;;3.22;1.00;;;;;;;;;;5070045;28;20583;-82
2023/01/09 10:04:14;;;;;;;7.18;2.03;;;;;;;;;;5073933;28;20050;-84
2023/01/09 10:07:04;;;;;;;1.25;0.70;;;;;;;;;;5088404;28;20070;-82
2023/01/09 10:09:53;;;;;;;2.78;0.90;;;;;;;;;;5073447;28;20451;-83
2023/01/09 10:12:42;;;;;;;2.75;1.38;;;;;;;;;;5078543;28;20501;-83
2023/01/09 10:15:41;;;;;;;6.00;1.63;;;;;;;;;;5070243;28;20430;-82
2023/01/09 10:18:29;;;;;;;6.68;1.95;;;;;;;;;;5073500;28;20063;-81
2023/01/09 10:21:21;;;;;;;4.15;1.20;;;;;;;;;;5074063;28;20089;-82
2023/01/09 10:24:15;;;;;;;5.55;1.35;;;;;;;;;;5072313;28;20042;-81
2023/01/09 10:27:15;;;;;;;3.20;1.40;;;;;;;;;;5073537;28;20028;-81
2023/01/09 10:30:06;;;;;;;2.88;1.05;;;;;;;;;;5081650;28;20425;-82
2023/01/09 10:32:55;;;;;;;5.68;1.70;;;;;;;;;;5062880;28;20503;-81
2023/01/09 10:35:59;;;;;;;4.45;1.20;;;;;;;;;;5073640;28;20028;-83
2023/01/09 10:38:46;;;;;;;4.22;1.60;;;;;;;;;;5059206;28;20161;-82
2023/01/09 10:41:48;;;;;;;3.00;1.00;;;;;;;;;;5073033;28;20124;-82
2023/01/09 10:44:38;;;;;;;22.63;1.70;;;;;;;;;;5072851;28;20043;-81
2023/01/09 10:47:29;;;;;;;9.60;1.67;;;;;;;;;;5073002;28;20024;-84
2023/01/09 10:50:18;;;;;;;4.28;1.70;;;;;;;;;;5088063;28;20104;-82
2023/01/09 10:53:18;;;;;;;5.10;1.90;;;;;;;;;;5077242;28;20024;-67
2023/01/09 10:56:11;;;;;;;3.65;1.50;;;;;;;;;;5063279;28;20020;-69
2023/01/09 10:58:56;;;;;;;2.65;1.20;;;;;;;;;;5077142;28;20074;-68
2023/01/09 11:01:42;;;;;;;4.30;1.38;;;;;;;;;;5085380;28;20437;-71
2023/01/09 11:04:29;;;;;;;2.60;1.52;;;;;;;;;;5091042;28;20123;-69
2023/01/09 11:07:17;;;;;;;4.95;1.25;;;;;;;;;;5065880;28;20043;-72
2023/01/09 11:10:06;;;;;;;4.90;1.73;;;;;;;;;;5089289;28;20101;-83
2023/01/09 11:13:11;;;;;;;2.03;1.00;;;;;;;;;;5063873;28;20031;-84
2023/01/09 11:16:16;;;;;;;3.15;1.10;;;;;;;;;;5054629;28;20239;-82
2023/01/09 11:19:01;;;;;;;4.88;0.98;;;;;;;;;;5066015;28;20032;-85
2023/01/09 11:21:47;;;;;;;10.60;2.08;;;;;;;;;;5077311;28;20540;-83
2023/01/09 11:24:32;;;;;;;6.80;1.83;;;;;;;;;;5057369;28;20036;-83
2023/01/09 11:27:22;;;;;;;5.00;1.10;;;;;;;;;;5077558;28;20119;-84
2023/01/09 11:30:25;;;;;;;5.60;1.20;;;;;;;;;;5083739;28;20032;-84
2023/01/09 11:33:14;;;;;;;6.07;1.25;;;;;;;;;;5083193;28;20039;-85
2023/01/09 11:36:09;;;;;;;3.53;1.33;;;;;;;;;;5077120;28;20020;-80
2023/01/09 11:38:56;;;;;;;4.43;1.30;;;;;;;;;;5076156;28;20032;-81
2023/01/09 11:41:41;;;;;;;2.25;0.90;;;;;;;;;;5076747;28;20032;-79
2023/01/09 11:44:27;;;;;;;2.40;1.00;;;;;;;;;;5076004;28;20043;-81
2023/01/09 11:47:36;;;;;;;6.50;1.38;;;;;;;;;;5076507;28;20048;-79
2023/01/09 11:50:26;;;;;;;3.67;1.17;;;;;;;;;;5073905;28;20114;-78
2023/01/09 11:53:15;;;;;;;5.07;1.50;;;;;;;;;;5061015;28;20036;-80
2023/01/09 11:56:01;;;;;;;;;;;;;;;;;;5076864;28;20044;-81
2023/01/09 11:58:46;;;;;;;6.30;1.60;;;;;;;;;;5076134;28;19938;-81
2023/01/09 12:01:34;;;;;;;4.60;2.25;;;;;;;;;;5076186;28;20031;-81
2023/01/09 12:04:23;;;;;;;8.13;1.40;;;;;;;;;;5078502;28;20042;-83
2023/01/09 12:07:27;;;;;;;7.60;1.45;;;;;;;;;;5085014;28;20031;-80
2023/01/09 12:10:29;;;;;;;6.65;1.30;;;;;;;;;;5075859;28;20036;-80
2023/01/09 12:13:17;;;;;;;4.72;1.17;;;;;;;;;;5061971;28;20383;-82
2023/01/09 12:16:14;;;;;;;5.50;1.20;;;;;;;;;;5067003;28;20032;-80
2023/01/09 12:19:18;;;;;;;2.55;1.45;;;;;;;;;;5075925;28;20028;-81
2023/01/09 12:22:12;;;;;;;4.18;1.15;;;;;;;;;;5075948;28;20111;-82
2023/01/09 12:25:05;;;;;;;2.92;1.50;;;;;;;;;;5075240;28;20040;-83
2023/01/09 12:27:58;;;;;;;3.55;1.30;;;;;;;;;;5075920;28;20368;-83
2023/01/09 12:30:46;;;;;;;6.03;1.48;;;;;;;;;;5089540;28;20051;-82
2023/01/09 12:33:41;;;;;;;5.75;2.38;;;;;;;;;;5061825;28;20067;-81
2023/01/09 12:36:42;;;;;;;5.68;1.30;;;;;;;;;;5078223;28;20028;-80
2023/01/09 12:39:31;;;;;;;3.92;1.20;;;;;;;;;;5078277;28;20458;-83
2023/01/09 12:42:35;;;;;;;8.68;1.80;;;;;;;;;;5061468;28;20425;-81
2023/01/09 12:45:26;;;;;;;4.53;1.00;;;;;;;;;;5074770;28;20111;-84
2023/01/09 12:48:30;;;;;;;7.10;1.85;;;;;;;;;;5074919;28;20518;-82
2023/01/09 12:51:21;;;;;;;5.22;1.65;;;;;;;;;;5071919;28;20050;-82
2023/01/09 12:54:06;;;;;;;3.22;1.33;;;;;;;;;;5074966;28;20024;-83
2023/01/09 12:56:55;;;;;;;4.40;2.00;;;;;;;;;;5062023;28;20115;-83
2023/01/09 12:59:52;;;;;;;3.42;1.00;;;;;;;;;;5073279;28;20058;-84
2023/01/09 13:02:41;;;;;;;3.53;1.02;;;;;;;;;;5078775;28;20080;-84
2023/01/09 13:05:34;;;;;;;3.65;1.10;;;;;;;;;;5088376;28;20035;-82
2023/01/09 13:08:23;;;;;;;6.57;1.27;;;;;;;;;;5076917;28;20219;-83
2023/01/09 13:11:16;;;;;;;6.27;1.27;;;;;;;;;;5079419;28;20032;-84
2023/01/09 13:14:17;;;;;;;3.72;1.73;;;;;;;;;;5074122;28;20505;-83
2023/01/09 13:17:03;;;;;;;7.47;2.53;;;;;;;;;;5074923;28;20513;-81
2023/01/09 13:19:48;;;;;;;2.78;0.80;;;;;;;;;;5088517;28;20032;-84
2023/01/09 13:22:33;;;;;;;8.57;1.42;;;;;;;;;;5063058;28;20024;-83
2023/01/09 13:25:28;;;;;;;3.25;0.98;;;;;;;;;;5073862;28;20027;-81
2023/01/09 13:28:22;;;;;;;1.45;0.77;;;;;;;;;;5074675;28;20047;-83
2023/01/09 13:31:13;;;;;;;3.60;1.17;;;;;;;;;;5087785;28;20038;-84
2023/01/09 13:34:00;;;;;;;2.63;0.90;;;;;;;;;;5074445;28;20024;-83
2023/01/09 13:36:47;;;;;;;1.77;0.90;;;;;;;;;;5074104;28;20126;-82
2023/01/09 13:39:34;;;;;;;2.40;0.98;;;;;;;;;;5073815;28;20039;-82
2023/01/09 13:45:24;;;;;;;3.50;1.63;;;;;;;;;;5087373;28;20039;-82
2023/01/09 13:48:10;;;;;;;2.90;1.25;;;;;;;;;;5074123;28;20031;-84
2023/01/09 13:51:15;;;;;;;3.83;1.17;;;;;;;;;;5073721;28;20119;-84
2023/01/09 13:54:01;;;;;;;3.40;1.10;;;;;;;;;;5074115;28;20040;-79
2023/01/09 13:57:05;;;;;;;1.70;0.77;;;;;;;;;;5074111;28;20020;-83
2023/01/09 13:59:50;;;;;;;2.67;0.75;;;;;;;;;;5082992;28;20035;-83
2023/01/09 14:02:45;;;;;;;2.40;0.77;;;;;;;;;;5060208;28;20040;-83
2023/01/09 14:05:30;;;;;;;1.50;0.82;;;;;;;;;;5073308;28;20489;-83
2023/01/09 14:08:26;;;;;;;1.55;0.80;;;;;;;;;;5073768;28;20123;-83
2023/01/09 14:11:18;;;;;;;0.57;0.52;;;;;;;;;;5073633;28;20778;-83
2023/01/09 14:14:06;;;;;;;1.42;0.60;;;;;;;;;;5082445;28;20346;-82
2023/01/09 14:16:51;;;;;;;1.35;0.80;;;;;;;;;;5071635;28;20835;-83
2023/01/09 14:19:37;;;;;;;0.80;0.70;;;;;;;;;;5087428;28;20487;-83
2023/01/09 14:22:24;;;;;;;1.05;0.60;;;;;;;;;;5059914;28;20484;-87
2023/01/09 14:25:15;;;;;;;0.50;0.50;;;;;;;;;;5062921;28;20032;-88
2023/01/09 14:28:01;;;;;;;1.20;0.60;;;;;;;;;;5073973;28;20493;-87
2023/01/09 14:30:53;;;;;;;3.15;0.90;;;;;;;;;;5076585;28;20051;-88
2023/01/09 14:33:38;;;;;;;1.40;0.68;;;;;;;;;;5077888;28;20020;-87
2023/01/09 14:36:28;;;;;;;1.08;0.70;;;;;;;;;;5075815;28;20025;-77
2023/01/09 14:39:13;;;;;;;;;;;;;;;;;;5073568;28;20483;-76
2023/01/09 14:42:05;;;;;;;1.27;0.80;;;;;;;;;;5073620;28;19999;-78
2023/01/09 14:44:58;;;;;;;0.88;0.60;;;;;;;;;;5077382;28;20421;-76
2023/01/09 14:47:45;;;;;;;1.75;0.63;;;;;;;;;;5071403;28;20025;-85
2023/01/09 14:50:30;;;;;;;1.20;0.80;;;;;;;;;;5073670;28;20394;-73
2023/01/09 14:53:21;;;;;;;1.27;1.02;;;;;;;;;;5073997;28;20082;-74
2023/01/09 14:56:21;;;;;;;3.33;1.10;;;;;;;;;;5078370;28;20060;-73
2023/01/09 14:59:11;;;;;;;1.63;0.70;;;;;;;;;;5055032;28;20126;-73
2023/01/09 15:01:57;;;;;;;3.33;0.73;;;;;;;;;;5053098;28;20028;-71
2023/01/09 15:04:44;;;;;;;2.60;0.90;;;;;;;;;;5068570;28;20039;-72
2023/01/09 15:07:33;;;;;;;3.38;0.90;;;;;;;;;;5073214;28;20265;-78
2023/01/09 15:10:20;;;;;;;2.67;0.97;;;;;;;;;;5073090;28;20387;-77
2023/01/09 15:13:06;;;;;;;1.13;0.73;;;;;;;;;;5073068;28;20032;-77
2023/01/09 15:15:52;;;;;;;1.30;0.75;;;;;;;;;;5072541;28;20042;-78
2023/01/09 15:18:40;;;;;;;2.15;0.77;;;;;;;;;;5079818;28;20107;-78
2023/01/09 15:21:26;;;;;;;4.30;2.05;;;;;;;;;;5072663;28;20471;-78
2023/01/09 15:24:18;;;;;;;4.50;0.93;;;;;;;;;;5073199;28;20040;-76
2023/01/09 15:27:09;;;;;;;3.50;1.23;;;;;;;;;;5072214;28;20032;-69
2023/01/09 15:29:54;;;;;;;3.33;1.40;;;;;;;;;;5072147;28;20028;-70
2023/01/09 15:32:41;;;;;;;2.88;1.20;;;;;;;;;;5060468;28;20024;-71
2023/01/09 15:35:27;;;;;;;1.25;1.00;;;;;;;;;;5072044;28;20024;-71
2023/01/09 15:38:19;;;;;;;1.55;0.90;;;;;;;;;;5075962;28;20043;-70
2023/01/09 15:41:06;;;;;;;1.00;0.88;;;;;;;;;;5075561;28;20032;-72
2023/01/09 15:43:52;;;;;;;3.42;1.00;;;;;;;;;;5076350;28;20040;-71
2023/01/09 15:46:38;;;;;;;2.85;1.10;;;;;;;;;;5069938;28;20036;-70
2023/01/09 15:49:23;;;;;;;3.90;1.02;;;;;;;;;;5097062;28;20116;-66
2023/01/09 15:52:13;;;;;;;2.15;0.88;;;;;;;;;;5088268;28;20115;-67
2023/01/09 15:54:59;;;;;;;2.10;1.10;;;;;;;;;;5085719;28;20457;-67
2023/01/09 15:57:49;;;;;;;1.30;0.98;;;;;;;;;;5070922;28;20036;-68
2023/01/09 16:00:40;;;;;;;2.08;1.30;;;;;;;;;;5072424;28;20419;-70
2023/01/09 16:03:25;;;;;;;4.43;1.63;;;;;;;;;;5076554;28;20090;-74
2023/01/09 16:06:30;;;;;;;2.20;1.10;;;;;;;;;;5089714;28;20042;-74
2023/01/09 16:09:26;;;;;;;4.10;1.10;;;;;;;;;;5055767;28;20955;-74
2023/01/09 16:12:19;;;;;;;4.03;1.50;;;;;;;;;;5052143;28;20033;-74
2023/01/09 16:15:04;;;;;;;6.65;1.23;;;;;;;;;;5072375;28;20544;-72
2023/01/09 16:18:04;;;;;;;2.92;1.23;;;;;;;;;;5081763;28;20063;-76
2023/01/09 16:20:59;;;;;;;2.30;0.95;;;;;;;;;;5079878;28;20016;-68
2023/01/09 16:23:56;;;;;;;2.33;0.90;;;;;;;;;;5090655;28;20460;-71
2023/01/09 16:26:41;;;;;;;2.88;0.95;;;;;;;;;;5072220;28;20036;-71
2023/01/09 16:29:34;;;;;;;1.25;0.80;;;;;;;;;;5072253;28;20119;-71
2023/01/09 16:32:28;;;;;;;1.27;0.90;;;;;;;;;;5057920;28;20016;-71
2023/01/09 16:35:15;;;;;;;5.63;1.02;;;;;;;;;;5087450;28;20119;-69
2023/01/09 16:38:00;;;;;;;3.58;0.90;;;;;;;;;;5065217;28;20032;-69
2023/01/09 16:44:05;;;;;;;1.75;1.13;;;;;;;;;;5075136;28;20123;-74
2023/01/09 16:46:50;;;;;;;1.92;1.02;;;;;;;;;;5077072;28;20488;-75
2023/01/09 16:49:36;;;;;;;7.95;2.05;;;;;;;;;;5071416;28;20317;-74
2023/01/09 16:52:21;;;;;;;2.55;1.90;;;;;;;;;;5076642;28;20024;-77
2023/01/09 16:55:06;;;;;;;2.80;1.13;;;;;;;;;;5079611;28;20487;-75
2023/01/09 16:57:51;;;;;;;2.85;1.50;;;;;;;;;;5088532;28;20043;-75
2023/01/09 17:00:37;;;;;;;3.70;1.85;;;;;;;;;;5070374;28;20028;-69
2023/01/09 17:03:23;;;;;;;3.45;2.15;;;;;;;;;;5087978;28;20024;-70
2023/01/09 17:06:29;;;;;;;3.13;1.15;;;;;;;;;;5072850;28;20486;-71